Lariat, Colorado
Current Conditions -  °F | °C
As of 11:30 PM on Friday 19 Dec 2014 (Local Time) from KRCV Reporting Station
Clear Clear  
Wind Chill:   Ceiling: Unl
Heat Index: 15°   Visibility: 10mi
Dew Point:   Wind: 12mph
Humidity: 74%   Direction: 260°W
Pressure: 30.16"   Gusts: NA
Location:  37.5196°N, 106.176°W
Report Text: KRCV 200630Z AUTO 26010KT 10SM CLR M09/M13 A3016 RMK AO2 T10931132
Loading
Personal Weather Stations






























Interactive Weather Map New forecast layout! Learn more

10-Day Weather Forecast

Advertisements
Track Severe Weather on mobile